Latest Weather Observations for North Head

IDN60801

Issued at 5:35 pm EDT Sunday 26 October 2014 (issued every 30 minutes, with the page automatically refreshed every 10 minutes)

About weather observations | Map of weather stations | Latest weather observations for NSW | Other Formats
Station Details ID: 066197 Name: NORTH HEAD Lat: -33.82 Lon: 151.30 Height: 90.0 m
Data from the previous 72 hours. | See also: Recent months for locations in New South Wales
Date/Time
EDT
Temp
°C
App
Temp
°C
Dew
Point
Rel
Hum
%
Delta-T
°C
Wind Press
QNH
hPa
Press
MSL
hPa
Rain
since 9 am
mm
Dir
 
Spd
km/h
Gust
km/h
Spd
kts
Gust
kts
26/05:30pm - - - - - S 22 32 12 17 - - -
26/05:00pm - - - - - S 22 33 12 18 - - -
26/04:30pm - - - - - S 26 41 14 22 - - -
26/04:00pm - - - - - S 22 35 12 19 - - -
26/03:30pm - - - - - S 20 37 11 20 - - -
26/03:00pm - - - - - S 20 32 11 17 - - -
26/02:30pm - - - - - S 26 37 14 20 - - -
26/02:00pm - - - - - S 20 33 11 18 - - -
26/01:30pm - - - - - SE 7 11 4 6 - - -
26/01:00pm - - - - - ESE 7 11 4 6 - - -
26/12:30pm - - - - - E 6 9 3 5 - - -
26/12:00pm - - - - - ENE 6 9 3 5 - - -
26/11:30am - - - - - E 4 7 2 4 - - -
26/11:00am - - - - - E 6 11 3 6 - - -
26/10:30am - - - - - ENE 6 11 3 6 - - -
26/10:00am - - - - - SW 4 7 2 4 - - -
26/09:30am - - - - - N 6 9 3 5 - - -
26/09:00am - - - - - WNW 4 11 2 6 - - -
26/08:30am - - - - - N 7 11 4 6 - - -
26/08:00am - - - - - N 6 9 3 5 - - -
26/07:30am - - - - - N 6 9 3 5 - - -
26/07:00am - - - - - N 6 9 3 5 - - -
26/06:30am - - - - - N 6 7 3 4 - - -
26/06:00am - - - - - NNW 9 15 5 8 - - -
26/05:30am - - - - - NNW 7 13 4 7 - - -
26/05:00am - - - - - NNW 11 17 6 9 - - -
26/04:30am - - - - - N 13 19 7 10 - - -
26/04:00am - - - - - NNW 11 15 6 8 - - -
26/03:30am - - - - - WNW 15 19 8 10 - - -
26/03:00am - - - - - WNW 15 20 8 11 - - -
26/02:30am - - - - - NW 17 22 9 12 - - -
26/02:00am - - - - - N 20 28 11 15 - - -
26/01:30am - - - - - NNE 17 22 9 12 - - -
26/01:00am - - - - - N 19 24 10 13 - - -
26/12:30am - - - - - NNW 13 19 7 10 - - -
26/12:00am - - - - - WSW 7 13 4 7 - - -
 
Date/Time
EDT
Temp
°C
App
Temp
°C
Dew
Point
Rel
Hum
%
Delta-T
°C
Wind Press
QNH
hPa
Press
MSL
hPa
Rain
since 9 am
mm
Dir
 
Spd
km/h
Gust
km/h
Spd
kts
Gust
kts
25/11:30pm - - - - - SW 11 17 6 9 - - -
25/11:00pm - - - - - SW 6 9 3 5 - - -
25/10:30pm - - - - - SSE 7 11 4 6 - - -
25/10:00pm - - - - - S 11 17 6 9 - - -
25/09:30pm - - - - - S 11 17 6 9 - - -
25/09:00pm - - - - - S 11 19 6 10 - - -
25/08:30pm - - - - - SSE 17 24 9 13 - - -
25/08:00pm - - - - - S 19 30 10 16 - - -
25/07:30pm - - - - - S 13 19 7 10 - - -
25/07:00pm - - - - - SSE 17 26 9 14 - - -
25/06:30pm - - - - - S 22 30 12 16 - - -
25/06:00pm - - - - - S 19 30 10 16 - - -
25/05:30pm - - - - - S 19 26 10 14 - - -
25/05:00pm - - - - - S 15 20 8 11 - - -
25/04:30pm - - - - - S 13 22 7 12 - - -
25/04:00pm - - - - - S 17 24 9 13 - - -
25/03:30pm - - - - - S 17 26 9 14 - - -
25/03:00pm - - - - - S 19 26 10 14 - - -
25/02:30pm - - - - - S 19 28 10 15 - - -
25/02:00pm - - - - - S 19 24 10 13 - - -
25/01:30pm - - - - - S 20 26 11 14 - - -
25/01:00pm - - - - - S 19 28 10 15 - - -
25/12:30pm - - - - - S 17 28 9 15 - - -
25/12:00pm - - - - - S 19 28 10 15 - - -
25/11:30am - - - - - S 19 28 10 15 - - -
25/11:00am - - - - - S 17 24 9 13 - - -
25/10:30am - - - - - S 11 19 6 10 - - -
25/10:00am - - - - - WSW 13 20 7 11 - - -
25/09:30am - - - - - WSW 13 20 7 11 - - -
25/09:00am - - - - - W 7 15 4 8 - - -
25/08:30am - - - - - W 13 17 7 9 - - -
25/08:00am - - - - - WNW 11 15 6 8 - - -
25/07:30am - - - - - W 11 15 6 8 - - -
25/07:00am - - - - - W 9 13 5 7 - - -
25/06:30am - - - - - W 9 11 5 6 - - -
25/06:00am - - - - - W 7 9 4 5 - - -
25/05:30am - - - - - W 7 9 4 5 - - -
25/05:00am - - - - - W 7 9 4 5 - - -
25/04:30am - - - - - W 9 9 5 5 - - -
25/04:00am - - - - - W 6 7 3 4 - - -
25/03:30am - - - - - SSW 6 7 3 4 - - -
25/03:00am - - - - - SSW 6 9 3 5 - - -
25/02:30am - - - - - WSW 9 13 5 7 - - -
25/02:00am - - - - - WSW 9 11 5 6 - - -
25/01:30am - - - - - SW 9 11 5 6 - - -
25/01:00am - - - - - SSE 6 9 3 5 - - -
25/12:30am - - - - - SSE 7 13 4 7 - - -
25/12:00am - - - - - W 7 13 4 7 - - -
 
Date/Time
EDT
Temp
°C
App
Temp
°C
Dew
Point
Rel
Hum
%
Delta-T
°C
Wind Press
QNH
hPa
Press
MSL
hPa
Rain
since 9 am
mm
Dir
 
Spd
km/h
Gust
km/h
Spd
kts
Gust
kts
24/11:30pm - - - - - N 17 24 9 13 - - -
24/11:00pm - - - - - NNE 20 26 11 14 - - -
24/10:30pm - - - - - N 13 19 7 10 - - -
24/10:00pm - - - - - N 20 30 11 16 - - -
24/09:30pm - - - - - NNE 22 33 12 18 - - -
24/09:00pm - - - - - NNE 22 32 12 17 - - -
24/08:30pm - - - - - NNE 24 33 13 18 - - -
24/08:00pm - - - - - NNE 22 33 12 18 - - -
24/07:30pm - - - - - NNE 24 35 13 19 - - -
24/07:00pm - - - - - NNE 26 39 14 21 - - -
24/06:30pm - - - - - NNE 22 33 12 18 - - -
24/06:00pm - - - - - NNE 22 32 12 17 - - -
24/05:30pm - - - - - NNE 20 33 11 18 - - -
24/05:00pm - - - - - NNE 22 35 12 19 - - -
24/04:30pm - - - - - NNE 22 37 12 20 - - -
24/04:00pm - - - - - NNE 20 32 11 17 - - -
24/03:30pm - - - - - NNE 20 33 11 18 - - -
24/03:00pm - - - - - NE 24 33 13 18 - - -
24/02:30pm - - - - - NE 20 32 11 17 - - -
24/02:00pm - - - - - NNE 20 32 11 17 - - -
24/01:30pm - - - - - NNE 24 32 13 17 - - -
24/01:00pm - - - - - NNE 22 32 12 17 - - -
24/12:30pm - - - - - NNE 19 26 10 14 - - -
24/12:00pm - - - - - NNE 17 22 9 12 - - -
24/11:30am - - - - - NNE 6 9 3 5 - - -
24/11:00am - - - - - ESE 11 17 6 9 - - -
24/10:30am - - - - - WNW 7 11 4 6 - - -
24/10:00am - - - - - N 9 17 5 9 - - -
24/09:30am - - - - - N 11 19 6 10 - - -
24/09:00am - - - - - N 13 20 7 11 - - -
24/08:30am - - - - - N 9 13 5 7 - - -
24/08:00am - - - - - ENE 7 13 4 7 - - -
24/07:30am - - - - - E 22 26 12 14 - - -
24/07:00am - - - - - SE 7 13 4 7 - - -
24/06:30am - - - - - SE 11 19 6 10 - - -
24/06:00am - - - - - NW 2 11 1 6 - - -
24/05:30am - - - - - W 7 7 4 4 - - -
24/05:00am - - - - - NNE 7 9 4 5 - - -
24/04:30am - - - - - W 7 13 4 7 - - -
24/04:00am - - - - - W 7 13 4 7 - - -
24/03:30am - - - - - NE 13 17 7 9 - - -
24/03:00am - - - - - E 11 17 6 9 - - -
24/02:30am - - - - - ESE 11 17 6 9 - - -
24/02:00am - - - - - S 9 13 5 7 - - -
24/01:30am - - - - - S 7 13 4 7 - - -
24/01:00am - - - - - SE 4 6 2 3 - - -
24/12:30am - - - - - SE 2 4 1 2 - - -
24/12:00am - - - - - E 4 6 2 3 - - -
 
Date/Time
EDT
Temp
°C
App
Temp
°C
Dew
Point
Rel
Hum
%
Delta-T
°C
Wind Press
QNH
hPa
Press
MSL
hPa
Rain
since 9 am
mm
Dir
 
Spd
km/h
Gust
km/h
Spd
kts
Gust
kts
23/11:30pm - - - - - SE 6 9 3 5 - - -
23/11:00pm - - - - - CALM 0 0 0 0 - - -
23/10:30pm - - - - - ENE 4 6 2 3 - - -
23/10:00pm - - - - - E 9 13 5 7 - - -
23/09:30pm - - - - - E 6 7 3 4 - - -
23/09:00pm - - - - - ESE 2 7 1 4 - - -
23/08:30pm - - - - - ENE 4 7 2 4 - - -
23/08:00pm - - - - - E 6 7 3 4 - - -
23/07:30pm - - - - - NE 6 9 3 5 - - -
23/07:00pm - - - - - E 4 7 2 4 - - -
23/06:30pm - - - - - E 4 6 2 3 - - -
23/06:00pm - - - - - E 7 11 4 6 - - -

Other Formats:

Comma delimited format used in spreadsheet applications
http://www.bom.gov.au/fwo/IDN60801/IDN60801.95768.axf

JavaScript Object Notation format (JSON) in row-major order
http://www.bom.gov.au/fwo/IDN60801/IDN60801.95768.json